createdAt,value
2022-08-30T00:00:43.687Z,98913.91
2022-08-30T00:02:45.587Z,98915.06
2022-08-30T00:04:47.866Z,98915.16
2022-08-30T00:06:49.651Z,98914.63
2022-08-30T00:08:52.847Z,98907.47
2022-08-30T00:10:55.013Z,98911.34
2022-08-30T00:12:58.023Z,98904.19
2022-08-30T00:14:59.706Z,98904.81
2022-08-30T00:17:01.585Z,98899.25
2022-08-30T00:19:03.685Z,98891.25
2022-08-30T00:21:06.748Z,98899.03
2022-08-30T00:23:08.372Z,98900.47
2022-08-30T00:25:10.766Z,98912.97
2022-08-30T00:27:12.349Z,98912.47
2022-08-30T00:29:14.040Z,98905.59
2022-08-30T00:31:15.793Z,98909.47
2022-08-30T00:33:17.803Z,98908.97
2022-08-30T00:35:20.692Z,98904.03
2022-08-30T00:37:22.769Z,98908.25
2022-08-30T00:39:24.383Z,98904.13
2022-08-30T00:41:26.084Z,98901.97
2022-08-30T00:43:30.914Z,98904.53
2022-08-30T00:45:35.706Z,98902.59
2022-08-30T00:47:40.771Z,98904.28
2022-08-30T00:49:46.672Z,98911.25
2022-08-30T00:51:48.582Z,98902.78
2022-08-30T00:53:55.334Z,98908.06
2022-08-30T00:55:59.326Z,98906.75
2022-08-30T00:58:05.314Z,98910.09
2022-08-30T01:00:11.111Z,98902.44
2022-08-30T01:02:17.786Z,98897.19
2022-08-30T01:04:22.118Z,98896.16
2022-08-30T01:06:23.636Z,98903.13
2022-08-30T01:08:27.610Z,98893.78
2022-08-30T01:10:29.242Z,98901.56
2022-08-30T01:12:31.207Z,98899.94
2022-08-30T01:14:33.577Z,98902.69
2022-08-30T01:16:37.865Z,98905.56
2022-08-30T01:18:40.359Z,98905.00
2022-08-30T01:20:49.660Z,98913.13
2022-08-30T01:22:51.183Z,98905.09
2022-08-30T01:24:55.934Z,98911.25
2022-08-30T01:26:58.544Z,98908.78
2022-08-30T01:29:04.664Z,98914.63
2022-08-30T01:31:06.538Z,98913.56
2022-08-30T01:33:10.131Z,98915.81
2022-08-30T01:35:17.819Z,98918.06
2022-08-30T01:37:23.839Z,98920.59
2022-08-30T01:39:26.366Z,98912.09
2022-08-30T01:41:34.973Z,98912.38
2022-08-30T01:43:36.838Z,98902.44
2022-08-30T01:45:39.370Z,98906.13
2022-08-30T01:47:42.408Z,98904.78
2022-08-30T01:49:45.750Z,98913.06
2022-08-30T01:51:47.611Z,98902.84
2022-08-30T01:53:50.758Z,98911.75
2022-08-30T01:55:52.520Z,98910.72
2022-08-30T01:57:54.319Z,98916.56
2022-08-30T01:59:56.022Z,98919.59
2022-08-30T02:01:57.788Z,98915.50
2022-08-30T02:04:00.081Z,98917.41
2022-08-30T02:06:04.496Z,98913.31
2022-08-30T02:08:06.110Z,98920.25
2022-08-30T02:10:08.695Z,98911.44
2022-08-30T02:12:10.440Z,98922.81
2022-08-30T02:14:12.061Z,98919.53
2022-08-30T02:16:17.619Z,98921.75
2022-08-30T02:18:19.173Z,98929.81
2022-08-30T02:20:20.983Z,98921.28
2022-08-30T02:22:22.493Z,98916.06
2022-08-30T02:24:24.207Z,98919.44
2022-08-30T02:26:26.512Z,98917.78
2022-08-30T02:28:28.288Z,98916.44
2022-08-30T02:30:29.938Z,98916.75
2022-08-30T02:32:31.732Z,98907.94
2022-08-30T02:34:33.428Z,98908.22
2022-08-30T02:36:35.104Z,98911.59
2022-08-30T02:38:37.018Z,98912.69
2022-08-30T02:40:39.084Z,98918.81
2022-08-30T02:42:41.821Z,98913.59
2022-08-30T02:44:43.466Z,98916.63
2022-08-30T02:46:45.867Z,98919.69
2022-08-30T02:48:47.409Z,98915.88
2022-08-30T02:50:52.550Z,98914.53
2022-08-30T02:52:55.543Z,98910.44
2022-08-30T02:54:57.200Z,98911.53
2022-08-30T02:56:59.066Z,98918.47
2022-08-30T02:59:00.762Z,98904.16
2022-08-30T03:01:03.557Z,98913.53
2022-08-30T03:03:06.024Z,98917.69
2022-08-30T03:05:09.176Z,98918.59
2022-08-30T03:07:12.497Z,98907.84
2022-08-30T03:09:14.295Z,98902.59
2022-08-30T03:11:16.179Z,98906.78
2022-08-30T03:13:18.007Z,98901.81
2022-08-30T03:15:20.956Z,98902.09
2022-08-30T03:17:23.128Z,98906.28
2022-08-30T03:19:25.974Z,98902.69
2022-08-30T03:21:27.655Z,98900.22
2022-08-30T03:23:29.296Z,98905.22
2022-08-30T03:25:31.249Z,98906.34
2022-08-30T03:27:32.852Z,98906.91
2022-08-30T03:29:35.295Z,98904.47
2022-08-30T03:31:37.874Z,98904.47
2022-08-30T03:33:53.951Z,98903.63
2022-08-30T03:35:55.834Z,98905.88
2022-08-30T03:37:59.025Z,98908.91
2022-08-30T03:40:01.306Z,98916.66
2022-08-30T03:42:04.002Z,98916.97
2022-08-30T03:44:05.661Z,98917.53
2022-08-30T03:46:08.010Z,98915.34
2022-08-30T03:48:11.285Z,98920.88
2022-08-30T03:50:14.499Z,98921.44
2022-08-30T03:52:16.067Z,98924.81
2022-08-30T03:54:18.313Z,98927.03
2022-08-30T03:56:20.105Z,98920.97
2022-08-30T03:58:22.562Z,98933.16
2022-08-30T04:00:24.288Z,98927.06
2022-08-30T04:02:26.721Z,98928.19
2022-08-30T04:04:28.349Z,98929.31
2022-08-30T04:06:30.040Z,98928.47
2022-08-30T04:08:31.667Z,98924.34
2022-08-30T04:10:34.015Z,98934.03
2022-08-30T04:12:37.936Z,98927.69
2022-08-30T04:14:40.181Z,98928.81
2022-08-30T04:16:43.695Z,98933.22
2022-08-30T04:18:45.457Z,98934.34
2022-08-30T04:20:47.585Z,98935.22
2022-08-30T04:22:49.206Z,98933.84
2022-08-30T04:24:50.792Z,98929.97
2022-08-30T04:26:52.567Z,98936.06
2022-08-30T04:28:55.936Z,98935.00
2022-08-30T04:30:57.767Z,98934.47
2022-08-30T04:32:59.901Z,98947.44
2022-08-30T04:35:02.197Z,98946.06
2022-08-30T04:37:04.091Z,98946.06
2022-08-30T04:39:06.836Z,98943.63
2022-08-30T04:41:17.632Z,98945.59
2022-08-30T04:43:19.300Z,98949.44
2022-08-30T04:45:21.784Z,98941.75
2022-08-30T04:47:23.418Z,98947.25
2022-08-30T04:49:24.938Z,98957.50
2022-08-30T04:51:26.644Z,98953.91
2022-08-30T04:53:28.478Z,98960.50
2022-08-30T04:55:33.092Z,98957.53
2022-08-30T04:57:34.838Z,98959.16
2022-08-30T04:59:38.806Z,98960.28
2022-08-30T05:01:44.690Z,98961.91
2022-08-30T05:03:48.677Z,98953.09
2022-08-30T05:05:50.874Z,98962.47
2022-08-30T05:07:52.488Z,98968.28
2022-08-30T05:09:54.125Z,98967.75
2022-08-30T05:11:58.511Z,98963.34
2022-08-30T05:14:00.671Z,98973.81
2022-08-30T05:16:04.221Z,98955.38
2022-08-30T05:18:07.676Z,98962.50
2022-08-30T05:20:11.551Z,98967.22
2022-08-30T05:22:13.185Z,98961.72
2022-08-30T05:24:14.697Z,98964.47
2022-08-30T05:26:19.064Z,98965.28
2022-08-30T05:28:25.969Z,98967.75
2022-08-30T05:30:28.401Z,98967.75
2022-08-30T05:32:30.642Z,98971.88
2022-08-30T05:34:33.612Z,98966.34
2022-08-30T05:36:37.106Z,98960.53
2022-08-30T05:38:39.346Z,98956.69
2022-08-30T05:40:42.512Z,98957.75
2022-08-30T05:42:46.123Z,98958.28
2022-08-30T05:44:52.532Z,98962.41
2022-08-30T05:46:54.030Z,98958.25
2022-08-30T05:48:57.077Z,98963.72
2022-08-30T05:51:21.040Z,98957.41
2022-08-30T05:53:22.728Z,98958.16
2022-08-30T05:55:24.865Z,98956.50
2022-08-30T05:57:26.920Z,98954.25
2022-08-30T05:59:28.800Z,98952.56
2022-08-30T06:01:33.868Z,98956.41
2022-08-30T06:03:35.548Z,98952.78
2022-08-30T06:05:37.513Z,98946.38
2022-08-30T06:07:39.899Z,98964.56
2022-08-30T06:09:41.493Z,98969.16
2022-08-30T06:11:44.514Z,98959.41
2022-08-30T06:13:47.915Z,98962.59
2022-08-30T06:15:51.069Z,98970.53
2022-08-30T06:17:52.804Z,98969.53
2022-08-30T06:19:54.591Z,98978.16
2022-08-30T06:21:56.192Z,98968.59
2022-08-30T06:23:58.830Z,98965.31
2022-08-30T06:26:06.091Z,98977.00
2022-08-30T06:28:07.777Z,98972.94
2022-08-30T06:30:10.970Z,98972.38
2022-08-30T06:32:12.563Z,98976.78
2022-08-30T06:34:16.845Z,98975.41
2022-08-30T06:36:23.973Z,98978.16
2022-08-30T06:38:25.558Z,98969.81
2022-08-30T06:40:27.139Z,98969.53
2022-08-30T06:42:32.185Z,98968.13
2022-08-30T06:44:34.449Z,98970.91
2022-08-30T06:46:39.075Z,98976.41
2022-08-30T06:48:43.028Z,98963.44
2022-08-30T06:50:53.378Z,98964.22
2022-08-30T06:52:54.905Z,98964.69
2022-08-30T06:54:59.070Z,98980.19
2022-08-30T06:57:00.679Z,98977.03
2022-08-30T06:59:03.541Z,98975.03
2022-08-30T07:01:12.887Z,98978.63
2022-08-30T07:03:15.495Z,98985.75
2022-08-30T07:05:18.943Z,98987.63
2022-08-30T07:07:20.900Z,98986.75
2022-08-30T07:09:22.843Z,98987.47
2022-08-30T07:11:30.186Z,98977.94
2022-08-30T07:13:32.477Z,98984.22
2022-08-30T07:15:38.081Z,98993.59
2022-08-30T07:17:58.459Z,98999.69
2022-08-30T07:20:00.215Z,98994.81
2022-08-30T07:22:01.751Z,98995.34
2022-08-30T07:24:05.197Z,98988.69
2022-08-30T07:26:13.653Z,98988.38
2022-08-30T07:28:18.068Z,98988.06
2022-08-30T07:30:19.928Z,98987.75
2022-08-30T07:32:21.549Z,98989.91
2022-08-30T07:34:29.075Z,98991.19
2022-08-30T07:36:30.933Z,98979.72
2022-08-30T07:38:33.854Z,98981.06
2022-08-30T07:40:38.114Z,98984.31
2022-08-30T07:42:40.973Z,98978.41
2022-08-30T07:44:42.860Z,98981.63
2022-08-30T07:46:47.690Z,98984.25
2022-08-30T07:48:51.813Z,98981.91
2022-08-30T07:50:57.165Z,98981.25
2022-08-30T07:53:10.733Z,98979.06
2022-08-30T07:55:12.988Z,98979.16
2022-08-30T07:57:16.779Z,98981.72
2022-08-30T07:59:18.581Z,98983.78
2022-08-30T08:01:23.585Z,98980.75
2022-08-30T08:03:26.569Z,98973.78
2022-08-30T08:05:28.218Z,98981.09
2022-08-30T08:07:39.954Z,98969.97
2022-08-30T08:09:41.818Z,98973.28
2022-08-30T08:11:43.710Z,98970.56
2022-08-30T08:13:53.661Z,98973.91
2022-08-30T08:15:56.201Z,98966.38
2022-08-30T08:17:57.991Z,98969.66
2022-08-30T08:19:59.816Z,98963.31
2022-08-30T08:22:19.980Z,98969.41
2022-08-30T08:24:27.046Z,98965.94
2022-08-30T08:26:29.022Z,98961.97
2022-08-30T08:28:30.854Z,98963.63
2022-08-30T08:30:36.117Z,98960.47
2022-08-30T08:32:37.843Z,98960.13
2022-08-30T08:34:39.846Z,98955.75
2022-08-30T08:36:41.656Z,98959.00
2022-08-30T08:38:45.084Z,98963.41
2022-08-30T08:41:03.469Z,98958.59
2022-08-30T08:43:12.130Z,98963.47
2022-08-30T08:45:19.637Z,98966.66
2022-08-30T08:47:50.723Z,98955.84
2022-08-30T08:49:58.128Z,98950.59
2022-08-30T08:52:18.219Z,98955.00
2022-08-30T08:54:58.992Z,98958.63
2022-08-30T08:57:01.072Z,98954.53
2022-08-30T08:59:02.721Z,98943.69
2022-08-30T09:01:05.325Z,98955.28
2022-08-30T09:03:13.473Z,98963.69
2022-08-30T09:05:21.106Z,98953.97
2022-08-30T09:07:26.065Z,98953.91
2022-08-30T09:09:34.251Z,98953.41
2022-08-30T09:11:37.714Z,98955.34
2022-08-30T09:13:39.383Z,98959.25
2022-08-30T09:15:43.105Z,98965.19
2022-08-30T09:17:53.499Z,98958.69
2022-08-30T09:19:55.209Z,98954.97
2022-08-30T09:22:21.820Z,98957.66
2022-08-30T09:24:26.203Z,98951.44
2022-08-30T09:26:35.312Z,98959.38
2022-08-30T09:28:51.059Z,98951.97
2022-08-30T09:31:18.396Z,98948.19
2022-08-30T09:33:20.698Z,98948.06
2022-08-30T09:35:37.818Z,98947.88
2022-08-30T09:37:47.669Z,98940.03
2022-08-30T09:39:49.422Z,98937.03
2022-08-30T09:41:51.300Z,98932.41
2022-08-30T09:44:30.648Z,98943.06
2022-08-30T09:46:32.298Z,98939.19
2022-08-30T09:48:40.848Z,98932.84
2022-08-30T09:50:43.204Z,98931.75
2022-08-30T09:53:09.768Z,98929.41
2022-08-30T09:55:33.191Z,98931.09
2022-08-30T09:57:45.939Z,98933.59
2022-08-30T10:00:09.892Z,98921.16
2022-08-30T10:02:40.116Z,98929.72
2022-08-30T10:04:53.561Z,98925.00
2022-08-30T10:07:12.909Z,98921.44
2022-08-30T10:09:44.557Z,98919.09
2022-08-30T10:11:59.726Z,98912.69
2022-08-30T10:14:15.899Z,98915.16
2022-08-30T10:16:26.389Z,98905.56
2022-08-30T10:19:13.877Z,98907.63
2022-08-30T10:21:41.650Z,98901.22
2022-08-30T10:23:58.478Z,98908.94
2022-08-30T10:26:19.482Z,98897.69
2022-08-30T10:28:33.359Z,98898.56
2022-08-30T10:30:39.944Z,98899.41
2022-08-30T10:32:59.639Z,98895.78
2022-08-30T10:35:23.120Z,98892.97
2022-08-30T10:37:28.656Z,98884.91
2022-08-30T10:39:37.603Z,98885.72
2022-08-30T10:41:54.679Z,98887.72
2022-08-30T10:44:18.884Z,98886.09
2022-08-30T10:46:35.187Z,98876.41
2022-08-30T10:48:41.118Z,98887.28
2022-08-30T10:50:52.264Z,98881.63
2022-08-30T10:53:03.371Z,98878.41
2022-08-30T10:55:15.798Z,98880.81
2022-08-30T10:57:18.736Z,98879.56
2022-08-30T10:59:20.766Z,98872.31
2022-08-30T11:01:52.889Z,98867.06
2022-08-30T11:04:29.341Z,98876.78
2022-08-30T11:06:35.911Z,98880.03
2022-08-30T11:09:04.581Z,98865.47
2022-08-30T11:11:26.142Z,98867.13
2022-08-30T11:13:31.751Z,98869.19
2022-08-30T11:15:53.934Z,98867.16
2022-08-30T11:18:09.978Z,98872.44
2022-08-30T11:20:31.369Z,98864.34
2022-08-30T11:22:39.254Z,98857.47
2022-08-30T11:25:02.802Z,98855.44
2022-08-30T11:27:44.011Z,98857.84
2022-08-30T11:29:47.556Z,98854.22
2022-08-30T11:31:49.639Z,98851.38
2022-08-30T11:33:57.560Z,98839.59
2022-08-30T11:36:00.500Z,98850.53
2022-08-30T11:38:31.185Z,98842.81
2022-08-30T11:40:56.222Z,98842.00
2022-08-30T11:43:37.070Z,98845.63
2022-08-30T11:45:47.215Z,98846.03
2022-08-30T11:48:07.445Z,98839.97
2022-08-30T11:50:22.377Z,98837.09
2022-08-30T11:52:50.060Z,98836.28
2022-08-30T11:54:57.782Z,98841.91
2022-08-30T11:57:41.361Z,98830.56
2022-08-30T12:00:04.617Z,98841.88
2022-08-30T12:02:34.113Z,98836.19
2022-08-30T12:04:47.338Z,98836.59
2022-08-30T12:06:53.812Z,98840.22
2022-08-30T12:09:02.267Z,98832.09
2022-08-30T12:11:31.416Z,98829.66
2022-08-30T12:13:38.949Z,98828.84
2022-08-30T12:15:58.674Z,98833.31
2022-08-30T12:18:18.791Z,98828.41
2022-08-30T12:20:31.042Z,98822.72
2022-08-30T12:22:38.814Z,98830.03
2022-08-30T12:24:46.442Z,98824.34
2022-08-30T12:26:50.158Z,98819.09
2022-08-30T12:29:24.646Z,98823.97
2022-08-30T12:31:33.104Z,98826.38
2022-08-30T12:33:41.667Z,98819.47
2022-08-30T12:35:44.524Z,98822.31
2022-08-30T12:37:56.573Z,98827.19
2022-08-30T12:40:20.912Z,98823.91
2022-08-30T12:42:32.055Z,98819.88
2022-08-30T12:44:34.021Z,98820.25
2022-08-30T12:46:35.928Z,98809.72
2022-08-30T12:48:41.108Z,98815.41
2022-08-30T12:50:56.789Z,98811.75
2022-08-30T12:53:13.035Z,98815.00
2022-08-30T12:55:24.007Z,98810.13
2022-08-30T12:57:40.164Z,98810.16
2022-08-30T12:59:52.922Z,98803.66
2022-08-30T13:02:20.303Z,98806.13
2022-08-30T13:04:29.217Z,98799.25
2022-08-30T13:07:01.179Z,98799.31
2022-08-30T13:09:02.897Z,98796.91
2022-08-30T13:11:30.876Z,98793.72
2022-08-30T13:13:44.840Z,98795.34
2022-08-30T13:15:49.181Z,98788.03
2022-08-30T13:18:12.410Z,98792.50
2022-08-30T13:20:14.743Z,98793.31
2022-08-30T13:22:28.583Z,98791.69
2022-08-30T13:24:30.332Z,98788.84
2022-08-30T13:26:42.267Z,98791.69
2022-08-30T13:28:57.854Z,98782.78
2022-08-30T13:31:00.392Z,98785.22
2022-08-30T13:33:07.466Z,98790.88
2022-08-30T13:35:10.612Z,98781.97
2022-08-30T13:39:40.836Z,98782.81
2022-08-30T13:41:43.527Z,98776.75
2022-08-30T13:46:12.408Z,98777.16
2022-08-30T13:48:15.964Z,98770.25
2022-08-30T13:50:20.928Z,98771.88
2022-08-30T13:52:24.532Z,98768.22
2022-08-30T13:54:27.617Z,98767.84
2022-08-30T13:56:32.145Z,98756.47
2022-08-30T13:58:33.780Z,98764.56
2022-08-30T14:00:37.803Z,98758.09
2022-08-30T14:02:46.367Z,98760.09
2022-08-30T14:04:49.213Z,98752.84
2022-08-30T14:09:14.431Z,98758.09
2022-08-30T14:11:22.542Z,98747.56
2022-08-30T14:13:28.855Z,98746.78
2022-08-30T14:15:33.057Z,98746.78
2022-08-30T14:17:35.836Z,98752.88
2022-08-30T14:19:39.176Z,98750.47
2022-08-30T14:21:41.310Z,98753.72
2022-08-30T14:23:42.846Z,98754.59
2022-08-30T14:25:44.561Z,98749.34
2022-08-30T14:27:46.765Z,98738.00
2022-08-30T14:29:49.451Z,98743.28
2022-08-30T14:31:51.111Z,98742.44
2022-08-30T14:33:55.790Z,98735.59
2022-08-30T14:35:57.524Z,98736.00
2022-08-30T14:37:59.329Z,98736.44
2022-08-30T14:40:00.961Z,98738.06
2022-08-30T14:42:07.608Z,98735.25
2022-08-30T14:44:15.224Z,98730.38
2022-08-30T14:46:17.370Z,98726.72
2022-08-30T14:48:19.357Z,98731.19
2022-08-30T14:50:21.692Z,98723.09
2022-08-30T14:52:23.193Z,98718.66
2022-08-30T14:54:28.093Z,98723.50
2022-08-30T14:56:32.235Z,98711.78
2022-08-30T14:58:36.641Z,98716.22
2022-08-30T15:00:38.816Z,98720.22
2022-08-30T15:02:40.703Z,98716.19
2022-08-30T15:04:42.567Z,98716.56
2022-08-30T15:06:47.755Z,98721.81
2022-08-30T15:08:49.427Z,98715.72
2022-08-30T15:10:51.139Z,98716.53
2022-08-30T15:12:53.797Z,98714.09
2022-08-30T15:14:55.679Z,98711.25
2022-08-30T15:16:59.274Z,98708.38
2022-08-30T15:19:03.070Z,98705.09
2022-08-30T15:21:05.610Z,98702.66
2022-08-30T15:23:07.944Z,98699.00
2022-08-30T15:25:09.962Z,98705.03
2022-08-30T15:27:11.734Z,98705.38
2022-08-30T15:29:16.120Z,98696.84
2022-08-30T15:31:23.422Z,98695.59
2022-08-30T15:33:25.478Z,98699.19
2022-08-30T15:35:28.738Z,98695.13
2022-08-30T15:37:30.483Z,98695.09
2022-08-30T15:39:32.565Z,98686.19
2022-08-30T15:41:36.074Z,98686.56
2022-08-30T15:43:41.144Z,98690.13
2022-08-30T15:45:43.050Z,98688.50
2022-08-30T15:47:44.965Z,98682.78
2022-08-30T15:49:46.462Z,98684.34
2022-08-30T15:51:51.463Z,98689.94
2022-08-30T15:53:55.481Z,98679.41
2022-08-30T15:55:57.289Z,98681.38
2022-08-30T15:57:59.213Z,98676.88
2022-08-30T16:00:02.896Z,98670.81
2022-08-30T16:02:13.173Z,98671.94
2022-08-30T16:04:17.161Z,98678.28
2022-08-30T16:06:26.924Z,98670.59
2022-08-30T16:08:29.745Z,98673.75
2022-08-30T16:10:31.378Z,98678.13
2022-08-30T16:12:33.634Z,98679.69
2022-08-30T16:14:38.213Z,98679.66
2022-08-30T16:16:41.152Z,98669.94
2022-08-30T16:18:42.927Z,98677.53
2022-08-30T16:20:45.003Z,98667.44
2022-08-30T16:22:49.758Z,98670.59
2022-08-30T16:24:51.447Z,98667.69
2022-08-30T16:26:53.528Z,98678.13
2022-08-30T16:28:55.693Z,98671.25
2022-08-30T16:30:58.289Z,98676.84
2022-08-30T16:32:59.903Z,98671.19
2022-08-30T16:35:01.582Z,98665.50
2022-08-30T16:37:03.555Z,98665.47
2022-08-30T16:39:10.235Z,98673.88
2022-08-30T16:41:20.601Z,98675.03
2022-08-30T16:43:23.955Z,98674.97
2022-08-30T16:45:28.593Z,98674.97
2022-08-30T16:47:32.955Z,98672.91
2022-08-30T16:49:37.101Z,98673.66
2022-08-30T16:51:39.072Z,98676.06
2022-08-30T16:53:41.368Z,98668.72
2022-08-30T16:55:45.061Z,98665.06
2022-08-30T16:57:46.887Z,98665.81
2022-08-30T16:59:50.797Z,98660.13
2022-08-30T17:01:54.158Z,98658.91
2022-08-30T17:03:56.021Z,98650.78
2022-08-30T17:05:58.134Z,98664.00
2022-08-30T17:07:59.779Z,98659.94
2022-08-30T17:10:05.419Z,98659.91
2022-08-30T17:12:07.608Z,98661.03
2022-08-30T17:14:09.731Z,98663.81
2022-08-30T17:16:11.706Z,98660.94
2022-08-30T17:18:14.704Z,98656.84
2022-08-30T17:20:16.599Z,98659.97
2022-08-30T17:22:18.180Z,98666.72
2022-08-30T17:24:23.043Z,98669.41
2022-08-30T17:26:26.301Z,98668.56
2022-08-30T17:28:28.661Z,98669.69
2022-08-30T17:30:30.435Z,98672.00
2022-08-30T17:32:32.530Z,98677.56
2022-08-30T17:34:34.132Z,98673.91
2022-08-30T17:36:36.902Z,98676.63
2022-08-30T17:38:40.029Z,98681.75
2022-08-30T17:40:46.987Z,98686.09
2022-08-30T17:42:49.075Z,98685.22
2022-08-30T17:44:52.211Z,98685.53
2022-08-30T17:46:57.339Z,98690.28
2022-08-30T17:49:01.428Z,98690.56
2022-08-30T17:51:03.978Z,98697.31
2022-08-30T17:53:06.237Z,98687.97
2022-08-30T17:55:09.179Z,98700.34
2022-08-30T17:57:13.154Z,98712.72
2022-08-30T17:59:17.112Z,98702.13
2022-08-30T18:01:21.073Z,98706.47
2022-08-30T18:03:22.839Z,98717.63
2022-08-30T18:05:25.607Z,98713.56
2022-08-30T18:07:27.527Z,98718.66
2022-08-30T18:09:33.693Z,98720.59
2022-08-30T18:11:39.495Z,98729.69
2022-08-30T18:13:41.183Z,98725.16
2022-08-30T18:15:44.112Z,98735.50
2022-08-30T18:17:49.112Z,98734.25
2022-08-30T18:19:51.594Z,98740.53
2022-08-30T18:21:53.868Z,98738.81
2022-08-30T18:23:55.708Z,98740.28
2022-08-30T18:26:00.417Z,98747.38
2022-08-30T18:28:03.608Z,98752.44
2022-08-30T18:30:07.523Z,98744.31
2022-08-30T18:32:13.456Z,98748.22
2022-08-30T18:34:14.996Z,98745.69
2022-08-30T18:36:17.057Z,98750.06
2022-08-30T18:38:23.567Z,98754.78
2022-08-30T18:40:25.594Z,98751.41
2022-08-30T18:42:28.143Z,98760.91
2022-08-30T18:44:33.563Z,98754.78
2022-08-30T18:46:36.138Z,98760.66
2022-08-30T18:48:38.515Z,98767.00
2022-08-30T18:50:44.019Z,98762.91
2022-08-30T18:52:45.712Z,98764.84
2022-08-30T18:54:52.410Z,98760.28
2022-08-30T18:56:54.875Z,98765.00
2022-08-30T18:58:56.620Z,98772.88
2022-08-30T19:00:58.273Z,98771.16
2022-08-30T19:03:00.055Z,98775.06
2022-08-30T19:05:01.850Z,98776.50
2022-08-30T19:07:08.032Z,98767.16
2022-08-30T19:09:11.140Z,98777.44
2022-08-30T19:11:12.931Z,98783.69
2022-08-30T19:13:14.837Z,98775.53
2022-08-30T19:15:17.213Z,98785.84
2022-08-30T19:17:19.978Z,98782.50
2022-08-30T19:19:22.080Z,98789.97
2022-08-30T19:21:23.773Z,98791.03
2022-08-30T19:23:27.824Z,98797.34
2022-08-30T19:25:35.595Z,98803.22
2022-08-30T19:27:38.383Z,98801.50
2022-08-30T19:29:42.212Z,98807.72
2022-08-30T19:31:46.559Z,98802.00
2022-08-30T19:33:48.367Z,98802.22
2022-08-30T19:35:51.461Z,98802.59
2022-08-30T19:37:53.228Z,98808.91
2022-08-30T19:39:55.052Z,98814.75
2022-08-30T19:42:00.114Z,98803.44
2022-08-30T19:44:03.457Z,98812.91
2022-08-30T19:46:05.163Z,98800.78
2022-08-30T19:48:07.063Z,98804.28
2022-08-30T19:50:09.237Z,98803.38
2022-08-30T19:52:11.106Z,98802.44
2022-08-30T19:54:12.757Z,98807.59
2022-08-30T19:56:14.384Z,98807.00
2022-08-30T19:58:16.827Z,98804.91
2022-08-30T20:00:19.227Z,98803.16
2022-08-30T20:02:21.194Z,98805.38
2022-08-30T20:04:22.773Z,98805.28
2022-08-30T20:06:24.485Z,98798.75
2022-08-30T20:08:26.373Z,98798.63
2022-08-30T20:10:28.165Z,98802.13
2022-08-30T20:12:29.877Z,98796.41
2022-08-30T20:14:35.127Z,98791.88
2022-08-30T20:16:37.840Z,98791.75
2022-08-30T20:18:42.680Z,98791.28
2022-08-30T20:20:49.817Z,98799.91
2022-08-30T20:22:54.394Z,98809.00
2022-08-30T20:24:56.459Z,98811.69
2022-08-30T20:26:58.257Z,98808.75
2022-08-30T20:29:01.888Z,98815.03
2022-08-30T20:31:09.593Z,98812.16
2022-08-30T20:33:12.648Z,98814.81
2022-08-30T20:35:16.987Z,98821.91
2022-08-30T20:37:22.658Z,98819.47
2022-08-30T20:39:24.841Z,98812.16
2022-08-30T20:41:28.931Z,98813.66
2022-08-30T20:43:31.501Z,98814.34
2022-08-30T20:45:34.088Z,98814.22
2022-08-30T20:47:38.070Z,98812.06
2022-08-30T20:49:39.978Z,98811.97
2022-08-30T20:51:41.850Z,98815.44
2022-08-30T20:53:44.580Z,98808.56
2022-08-30T20:55:47.336Z,98804.84
2022-08-30T20:57:49.154Z,98806.00
2022-08-30T20:59:50.946Z,98810.31
2022-08-30T21:01:52.422Z,98814.97
2022-08-30T21:03:56.723Z,98809.25
2022-08-30T21:05:58.736Z,98806.81
2022-08-30T21:08:00.357Z,98805.84
2022-08-30T21:10:02.470Z,98814.91
2022-08-30T21:12:05.047Z,98812.78
2022-08-30T21:14:07.593Z,98812.00
2022-08-30T21:16:09.289Z,98811.19
2022-08-30T21:18:14.809Z,98809.44
2022-08-30T21:20:16.978Z,98806.13
2022-08-30T21:22:18.621Z,98814.19
2022-08-30T21:24:20.793Z,98804.84
2022-08-30T21:26:22.649Z,98815.09
2022-08-30T21:28:24.419Z,98818.91
2022-08-30T21:30:26.560Z,98817.94
2022-08-30T21:32:28.354Z,98812.56
2022-08-30T21:34:30.029Z,98814.91
2022-08-30T21:36:46.903Z,98814.25
2022-08-30T21:38:48.758Z,98814.81
2022-08-30T21:40:50.614Z,98813.06
2022-08-30T21:42:52.258Z,98806.88
2022-08-30T21:44:53.891Z,98817.41
2022-08-30T21:46:55.706Z,98814.50
2022-08-30T21:49:01.162Z,98819.47
2022-08-30T21:51:07.656Z,98818.16
2022-08-30T21:53:09.986Z,98827.22
2022-08-30T21:55:12.076Z,98821.00
2022-08-30T21:57:16.167Z,98825.75
2022-08-30T21:59:19.435Z,98825.16
2022-08-30T22:01:24.350Z,98824.19
2022-08-30T22:03:26.007Z,98818.50
2022-08-30T22:05:28.096Z,98829.50
2022-08-30T22:07:29.588Z,98824.09
2022-08-30T22:09:31.357Z,98818.69
2022-08-30T22:11:34.333Z,98821.69
2022-08-30T22:13:38.511Z,98822.34
2022-08-30T22:15:41.707Z,98832.88
2022-08-30T22:17:43.781Z,98831.09
2022-08-30T22:19:45.397Z,98822.44
2022-08-30T22:21:48.095Z,98828.69
2022-08-30T22:23:50.541Z,98831.31
2022-08-30T22:25:52.624Z,98827.56
2022-08-30T22:27:57.691Z,98827.91
2022-08-30T22:29:59.308Z,98827.41
2022-08-30T22:32:01.221Z,98833.69
2022-08-30T22:34:02.978Z,98829.09
2022-08-30T22:36:12.692Z,98827.00
2022-08-30T22:38:14.720Z,98832.06
2022-08-30T22:40:16.562Z,98825.19
2022-08-30T22:42:18.241Z,98827.00
2022-08-30T22:44:19.740Z,98823.41
2022-08-30T22:46:23.213Z,98824.06
2022-08-30T22:48:36.717Z,98819.94
2022-08-30T22:50:38.590Z,98821.44
2022-08-30T22:52:41.048Z,98824.56
2022-08-30T22:54:42.899Z,98831.59
2022-08-30T22:56:45.365Z,98829.81
2022-08-30T22:58:47.950Z,98830.47
2022-08-30T23:00:54.605Z,98827.22
2022-08-30T23:02:57.166Z,98831.78
2022-08-30T23:05:00.193Z,98834.75
2022-08-30T23:07:01.819Z,98839.38
2022-08-30T23:09:04.736Z,98835.28
2022-08-30T23:11:06.439Z,98840.19
2022-08-30T23:13:08.094Z,98844.78
2022-08-30T23:15:13.046Z,98845.78
2022-08-30T23:17:14.608Z,98842.34
2022-08-30T23:19:17.038Z,98844.13
2022-08-30T23:21:29.717Z,98843.16
2022-08-30T23:23:49.958Z,98846.59
2022-08-30T23:26:10.076Z,98847.59
2022-08-30T23:28:31.154Z,98842.97
2022-08-30T23:30:51.301Z,98848.72
2022-08-30T23:33:11.596Z,98847.22
2022-08-30T23:35:32.374Z,98835.13
2022-08-30T23:37:53.366Z,98843.78
2022-08-30T23:40:13.780Z,98838.72
2022-08-30T23:42:34.021Z,98841.66
2022-08-30T23:44:53.866Z,98835.91
2022-08-30T23:47:14.067Z,98831.34
2022-08-30T23:49:34.498Z,98834.28
2022-08-30T23:51:56.122Z,98832.97
2022-08-30T23:54:16.553Z,98836.22
2022-08-30T23:56:36.478Z,98829.66
2022-08-30T23:58:56.955Z,98827.88
